Wetterdaten: Woche 04.12.17 - 10.12.17 (KW49)
Datum Zeit Temp. A. Feuchte A. Luftdruck Regen Wind Richtung Taupunkt Windchill Windben
04.12.2017 00:00 1,0 C 65 % 1023,4 hPa 0,0 l/m 6,1 km/h N -4,7 C 0,7 C 19,3 km/h
04.12.2017 01:00 1,1 C 68 % 1023,3 hPa 0,0 l/m 5,7 km/h N -4,2 C 1,1 C 22,9 km/h
04.12.2017 02:00 1,2 C 70 % 1023,0 hPa 0,0 l/m 5,3 km/h N -3,7 C 1,2 C 20,9 km/h
04.12.2017 03:00 1,3 C 71 % 1022,8 hPa 0,0 l/m 5,4 km/h N -3,3 C 1,2 C 22,9 km/h
04.12.2017 04:00 1,8 C 72 % 1022,3 hPa 0,0 l/m 9,9 km/h N -2,7 C -1,3 C 33,4 km/h
04.12.2017 05:00 1,7 C 75 % 1021,6 hPa 0,0 l/m 14,1 km/h N -2,2 C -4,4 C 40,7 km/h
04.12.2017 06:00 1,1 C 81 % 1021,5 hPa 0,0 l/m 13,9 km/h N -1,7 C -4,9 C 36,6 km/h
04.12.2017 07:00 1,8 C 77 % 1022,2 hPa 0,0 l/m 12,3 km/h N -1,9 C -3,1 C 36,6 km/h
04.12.2017 08:00 1,9 C 78 % 1022,6 hPa 0,0 l/m 11,0 km/h N -1,7 C -2,1 C 32,6 km/h
04.12.2017 09:00 2,5 C 75 % 1022,7 hPa 0,0 l/m 11,1 km/h N -1,5 C -1,5 C 35,4 km/h
04.12.2017 10:00 2,3 C 78 % 1023,0 hPa 0,3 l/m 10,3 km/h N -1,1 C -1,1 C 37,8 km/h
04.12.2017 11:00 2,8 C 76 % 1022,7 hPa 0,3 l/m 12,0 km/h N -1,0 C -1,7 C 33,8 km/h
04.12.2017 12:00 3,2 C 76 % 1022,6 hPa 0,3 l/m 8,7 km/h N -0,6 C 1,2 C 29,0 km/h
04.12.2017 13:00 3,7 C 73 % 1022,0 hPa 0,3 l/m 9,9 km/h N -0,7 C 0,7 C 30,6 km/h
04.12.2017 14:00 3,8 C 73 % 1022,3 hPa 0,0 l/m 9,3 km/h N -0,6 C 1,4 C 33,4 km/h
04.12.2017 15:00 3,3 C 77 % 1022,6 hPa 0,0 l/m 10,0 km/h N -0,4 C 0,2 C 31,8 km/h
04.12.2017 16:00 3,4 C 75 % 1022,8 hPa 0,0 l/m 7,9 km/h N -0,6 C 2,0 C 24,5 km/h
04.12.2017 17:00 3,5 C 75 % 1023,2 hPa 0,0 l/m 8,8 km/h N -0,6 C 1,4 C 25,4 km/h
04.12.2017 18:00 3,6 C 75 % 1023,5 hPa 0,0 l/m 9,9 km/h N -0,5 C 0,6 C 26,2 km/h
04.12.2017 19:00 3,3 C 78 % 1024,3 hPa 0,0 l/m 10,9 km/h N -0,2 C -0,4 C 30,6 km/h
04.12.2017 20:00 3,3 C 78 % 1024,8 hPa 0,0 l/m 13,4 km/h N -0,1 C -2,0 C 31,8 km/h
04.12.2017 21:00 3,5 C 77 % 1025,5 hPa 0,0 l/m 11,5 km/h N -0,1 C -0,6 C 29,0 km/h
04.12.2017 22:00 3,7 C 75 % 1026,0 hPa 0,0 l/m 13,1 km/h N -0,3 C -1,4 C 32,2 km/h
04.12.2017 23:00 3,4 C 77 % 1026,7 hPa 0,0 l/m 10,3 km/h N -0,3 C 0,2 C 30,2 km/h
05.12.2017 00:00 2,9 C 80 % 1027,5 hPa 0,0 l/m 9,0 km/h N -0,3 C 0,6 C 26,1 km/h
05.12.2017 01:00 2,7 C 82 % 1028,2 hPa 0,5 l/m 8,5 km/h N -0,2 C 0,8 C 25,0 km/h
05.12.2017 02:00 2,9 C 81 % 1028,7 hPa 0,0 l/m 8,6 km/h N -0,1 C 0,9 C 22,9 km/h
05.12.2017 03:00 3,2 C 79 % 1028,6 hPa 0,0 l/m 6,0 km/h N -0,2 C 2,8 C 19,3 km/h
05.12.2017 04:00 3,4 C 78 % 1028,8 hPa 0,0 l/m 8,2 km/h N -0,1 C 1,7 C 26,5 km/h
05.12.2017 05:00 3,6 C 78 % 1028,7 hPa 0,0 l/m 8,7 km/h N 0,1 C 1,6 C 22,9 km/h
05.12.2017 06:00 4,1 C 76 % 1028,7 hPa 0,0 l/m 7,7 km/h N 0,1 C 2,8 C 24,9 km/h
05.12.2017 07:00 4,3 C 78 % 1028,7 hPa 0,0 l/m 8,3 km/h N 0,7 C 2,6 C 24,9 km/h
05.12.2017 08:00 4,2 C 79 % 1029,2 hPa 0,0 l/m 11,1 km/h N 1,0 C 0,5 C 30,2 km/h
05.12.2017 09:00 4,1 C 81 % 1029,5 hPa 1,0 l/m 10,6 km/h N 1,1 C 0,7 C 30,6 km/h
05.12.2017 10:00 4,3 C 81 % 1029,5 hPa 0,5 l/m 13,1 km/h N 1,3 C -0,7 C 35,4 km/h
05.12.2017 11:00 4,6 C 80 % 1029,2 hPa 0,0 l/m 12,6 km/h N 1,5 C -0,1 C 35,8 km/h
05.12.2017 12:00 5,2 C 78 % 1029,0 hPa 0,0 l/m 14,4 km/h N 1,6 C -0,4 C 37,0 km/h
05.12.2017 13:00 5,2 C 79 % 1029,1 hPa 0,0 l/m 11,9 km/h N 1,7 C 1,0 C 35,8 km/h
05.12.2017 14:00 5,3 C 78 % 1029,1 hPa 0,3 l/m 12,6 km/h N 1,9 C 0,8 C 35,8 km/h
05.12.2017 15:00 5,6 C 77 % 1029,4 hPa 0,0 l/m 12,3 km/h N 1,8 C 1,3 C 31,8 km/h
05.12.2017 16:00 5,4 C 77 % 1029,6 hPa 0,0 l/m 12,3 km/h N 1,7 C 1,1 C 30,6 km/h
05.12.2017 17:00 5,3 C 76 % 1029,6 hPa 0,0 l/m 11,9 km/h N 1,5 C 1,2 C 35,8 km/h
05.12.2017 18:00 5,5 C 75 % 1029,8 hPa 0,0 l/m 12,0 km/h N 1,4 C 1,4 C 41,1 km/h
05.12.2017 19:00 5,7 C 74 % 1030,1 hPa 0,0 l/m 14,6 km/h N 1,3 C 0,1 C 43,5 km/h
05.12.2017 20:00 5,6 C 73 % 1030,1 hPa 0,0 l/m 12,5 km/h N 1,2 C 1,3 C 33,8 km/h
05.12.2017 21:00 5,7 C 73 % 1030,5 hPa 0,0 l/m 13,0 km/h N 1,2 C 1,0 C 36,2 km/h
05.12.2017 22:00 5,5 C 74 % 1030,7 hPa 0,0 l/m 11,6 km/h N 1,2 C 1,8 C 32,2 km/h
05.12.2017 23:00 5,4 C 73 % 1030,6 hPa 0,0 l/m 10,0 km/h N 1,0 C 2,6 C 35,0 km/h
06.12.2017 00:00 5,4 C 73 % 1030,8 hPa 0,0 l/m 11,8 km/h N 0,9 C 1,3 C 39,4 km/h
06.12.2017 01:00 5,4 C 72 % 1030,5 hPa 0,0 l/m 10,7 km/h N 0,8 C 2,1 C 29,0 km/h
06.12.2017 02:00 5,6 C 71 % 1030,7 hPa 0,0 l/m 13,6 km/h N 0,6 C 0,6 C 32,6 km/h
06.12.2017 03:00 5,5 C 71 % 1030,5 hPa 0,0 l/m 13,3 km/h N 0,7 C 0,6 C 37,8 km/h
06.12.2017 04:00 5,4 C 71 % 1030,2 hPa 0,0 l/m 12,9 km/h N 0,6 C 0,7 C 33,4 km/h
06.12.2017 05:00 5,3 C 71 % 1030,1 hPa 0,0 l/m 10,3 km/h N 0,4 C 2,2 C 28,2 km/h
06.12.2017 06:00 5,2 C 71 % 1030,1 hPa 0,0 l/m 11,1 km/h N 0,4 C 1,7 C 33,0 km/h
06.12.2017 07:00 5,2 C 70 % 1030,2 hPa 0,0 l/m 10,4 km/h N 0,2 C 2,1 C 29,8 km/h
06.12.2017 08:00 5,3 C 69 % 1030,3 hPa 0,0 l/m 9,8 km/h N 0,0 C 2,6 C 33,4 km/h
06.12.2017 09:00 5,6 C 68 % 1030,0 hPa 0,0 l/m 9,9 km/h N 0,1 C 2,9 C 30,2 km/h
06.12.2017 10:00 5,9 C 66 % 1030,2 hPa 0,0 l/m 10,7 km/h N -0,0 C 2,7 C 30,6 km/h
06.12.2017 11:00 6,4 C 64 % 1029,7 hPa 0,0 l/m 12,1 km/h N 0,1 C 2,4 C 35,4 km/h
06.12.2017 12:00 6,5 C 64 % 1029,2 hPa 0,0 l/m 9,2 km/h N 0,1 C 4,3 C 28,2 km/h
06.12.2017 13:00 6,5 C 64 % 1028,6 hPa 0,0 l/m 7,7 km/h N 0,2 C 5,2 C 28,2 km/h
06.12.2017 14:00 6,2 C 65 % 1028,4 hPa 0,0 l/m 8,3 km/h N -0,0 C 4,4 C 26,1 km/h
06.12.2017 15:00 5,4 C 67 % 1028,6 hPa 0,0 l/m 6,6 km/h N -0,2 C 4,8 C 24,5 km/h
06.12.2017 16:00 4,5 C 71 % 1028,7 hPa 0,0 l/m 4,3 km/h N -0,4 C 4,5 C 16,9 km/h
06.12.2017 17:00 4,2 C 72 % 1028,7 hPa 0,0 l/m 4,0 km/h N -0,4 C 4,2 C 16,1 km/h
06.12.2017 18:00 4,2 C 71 % 1028,5 hPa 0,0 l/m 4,3 km/h N -0,7 C 4,2 C 18,9 km/h
06.12.2017 19:00 4,0 C 70 % 1028,8 hPa 0,0 l/m 2,4 km/h N -0,9 C 4,0 C 15,7 km/h
06.12.2017 20:00 3,6 C 71 % 1028,9 hPa 0,0 l/m 1,2 km/h N -1,2 C 3,6 C 10,1 km/h
06.12.2017 21:00 3,4 C 72 % 1028,8 hPa 0,0 l/m 3,8 km/h N -1,1 C 3,4 C 17,3 km/h
06.12.2017 22:00 3,3 C 73 % 1028,9 hPa 0,0 l/m 2,3 km/h N -1,2 C 3,3 C 9,6 km/h
06.12.2017 23:00 2,8 C 74 % 1029,0 hPa 0,0 l/m 2,4 km/h N -1,5 C 2,8 C 9,7 km/h
07.12.2017 00:00 2,5 C 76 % 1028,7 hPa 0,0 l/m 4,3 km/h N -1,4 C 2,5 C 12,9 km/h
07.12.2017 01:00 2,2 C 76 % 1028,4 hPa 0,0 l/m 4,8 km/h N -1,6 C 2,2 C 16,5 km/h
07.12.2017 02:00 1,2 C 77 % 1028,4 hPa 0,0 l/m 0,3 km/h N -2,4 C 1,2 C 2,4 km/h
07.12.2017 03:00 0,9 C 80 % 1028,3 hPa 0,0 l/m 1,3 km/h N -2,2 C 0,9 C 5,2 km/h
07.12.2017 04:00 0,9 C 80 % 1027,8 hPa 0,0 l/m 0,3 km/h N -2,2 C 0,9 C 3,6 km/h
07.12.2017 05:00 0,4 C 81 % 1027,4 hPa 0,0 l/m 0,6 km/h N -2,5 C 0,4 C 6,0 km/h
07.12.2017 06:00 -0,3 C 81 % 1027,1 hPa 0,0 l/m 0,1 km/h N -3,2 C -0,3 C 1,6 km/h
07.12.2017 07:00 -1,8 C 82 % 1027,1 hPa 0,0 l/m 0,0 km/h N -4,5 C -1,8 C 0,0 km/h
07.12.2017 08:00 -2,3 C 83 % 1027,0 hPa 0,0 l/m 0,0 km/h N -4,8 C -2,3 C 0,0 km/h
07.12.2017 09:00 -0,5 C 84 % 1026,5 hPa 0,0 l/m 0,0 km/h N -2,9 C -0,5 C 0,0 km/h
07.12.2017 10:00 1,0 C 84 % 1026,2 hPa 0,0 l/m 0,0 km/h N -1,5 C 1,0 C 0,0 km/h
07.12.2017 11:00 2,1 C 83 % 1025,3 hPa 0,0 l/m 0,0 km/h N -0,5 C 2,1 C 0,8 km/h
07.12.2017 12:00 3,8 C 81 % 1024,3 hPa 0,0 l/m 0,1 km/h N 0,9 C 3,8 C 2,4 km/h
07.12.2017 13:00 5,1 C 78 % 1023,4 hPa 0,0 l/m 0,0 km/h N 1,5 C 5,1 C 1,2 km/h
07.12.2017 14:00 6,3 C 74 % 1022,6 hPa 0,0 l/m 0,0 km/h N 2,0 C 6,3 C 1,2 km/h
07.12.2017 15:00 6,3 C 71 % 1022,1 hPa 0,0 l/m 0,0 km/h N 1,5 C 6,3 C 0,4 km/h
07.12.2017 16:00 4,7 C 75 % 1021,6 hPa 0,0 l/m 0,0 km/h N 0,5 C 4,7 C 0,0 km/h
07.12.2017 17:00 2,5 C 77 % 1021,3 hPa 0,0 l/m 0,0 km/h N -1,1 C 2,5 C 0,0 km/h
07.12.2017 18:00 0,4 C 80 % 1021,3 hPa 0,0 l/m 0,0 km/h N -2,6 C 0,4 C 0,4 km/h
07.12.2017 19:00 -1,1 C 82 % 1021,0 hPa 0,0 l/m 0,0 km/h N -3,7 C -1,1 C 0,0 km/h
07.12.2017 20:00 -2,1 C 83 % 1020,5 hPa 0,0 l/m 0,0 km/h N -4,6 C -2,1 C 0,0 km/h
07.12.2017 21:00 -2,8 C 84 % 1019,8 hPa 0,0 l/m 0,0 km/h N -5,2 C -2,8 C 0,0 km/h
07.12.2017 22:00 -3,4 C 84 % 1019,1 hPa 0,0 l/m 0,0 km/h N -5,7 C -3,4 C 0,0 km/h
07.12.2017 23:00 -3,8 C 84 % 1018,4 hPa 0,0 l/m 0,0 km/h N -6,1 C -3,8 C 0,0 km/h
08.12.2017 00:00 -3,4 C 84 % 1017,5 hPa 0,0 l/m 0,0 km/h N -5,8 C -3,4 C 0,0 km/h
08.12.2017 01:00 -2,8 C 84 % 1016,7 hPa 0,0 l/m 0,0 km/h N -5,1 C -2,8 C 0,0 km/h
08.12.2017 02:00 -2,9 C 84 % 1015,7 hPa 0,0 l/m 0,0 km/h N -5,2 C -2,9 C 1,6 km/h
08.12.2017 03:00 -3,1 C 84 % 1014,6 hPa 0,0 l/m 0,1 km/h N -5,4 C -3,1 C 2,0 km/h
08.12.2017 04:00 -3,4 C 84 % 1013,9 hPa 0,0 l/m 0,0 km/h N -5,8 C -3,4 C 0,4 km/h
08.12.2017 05:00 -3,4 C 84 % 1012,8 hPa 0,0 l/m 0,0 km/h N -5,7 C -3,4 C 1,6 km/h
08.12.2017 06:00 -3,3 C 84 % 1012,5 hPa 0,0 l/m 0,0 km/h N -5,6 C -3,3 C 1,6 km/h
08.12.2017 07:00 -3,2 C 84 % 1012,3 hPa 0,0 l/m 2,0 km/h N -5,5 C -3,2 C 5,6 km/h
08.12.2017 08:00 -2,6 C 84 % 1012,8 hPa 0,0 l/m 1,9 km/h N -4,9 C -2,6 C 6,8 km/h
08.12.2017 09:00 -1,6 C 84 % 1012,5 hPa 0,0 l/m 0,1 km/h N -4,0 C -1,6 C 1,6 km/h
08.12.2017 10:00 -0,8 C 84 % 1012,5 hPa 0,0 l/m 0,0 km/h N -3,2 C -0,8 C 2,4 km/h
08.12.2017 11:00 -0,8 C 84 % 1012,1 hPa 0,0 l/m 0,7 km/h N -3,1 C -0,8 C 6,4 km/h
08.12.2017 12:00 -0,8 C 84 % 1011,8 hPa 0,0 l/m 0,2 km/h N -3,1 C -0,8 C 3,2 km/h
08.12.2017 13:00 -0,5 C 84 % 1011,2 hPa 0,0 l/m 0,0 km/h N -2,9 C -0,5 C 0,4 km/h
08.12.2017 14:00 -0,3 C 84 % 1011,0 hPa 0,0 l/m 0,2 km/h N -2,6 C -0,3 C 2,4 km/h
08.12.2017 15:00 0,0 C 84 % 1010,8 hPa 0,3 l/m 0,0 km/h N -2,3 C 0,0 C 0,0 km/h
08.12.2017 16:00 0,3 C 84 % 1011,2 hPa 0,5 l/m 0,0 km/h N -2,1 C 0,3 C 0,0 km/h
08.12.2017 17:00 2,9 C 84 % 1011,0 hPa 1,0 l/m 4,8 km/h N 0,5 C 2,8 C 18,5 km/h
08.12.2017 18:00 4,1 C 84 % 1010,9 hPa 0,0 l/m 6,0 km/h N 1,6 C 3,8 C 19,7 km/h
08.12.2017 19:00 4,4 C 79 % 1010,7 hPa 0,0 l/m 6,3 km/h N 1,1 C 3,9 C 18,9 km/h
08.12.2017 20:00 4,6 C 71 % 1010,4 hPa 0,0 l/m 7,5 km/h N -0,3 C 3,6 C 20,9 km/h
08.12.2017 21:00 4,4 C 68 % 1010,4 hPa 0,0 l/m 9,1 km/h N -0,9 C 2,2 C 29,4 km/h
08.12.2017 22:00 3,9 C 71 % 1010,5 hPa 0,0 l/m 10,2 km/h N -0,8 C 0,9 C 32,2 km/h
08.12.2017 23:00 3,5 C 69 % 1010,6 hPa 0,0 l/m 13,5 km/h N -1,5 C -1,8 C 37,0 km/h
09.12.2017 00:00 3,1 C 70 % 1010,1 hPa 0,0 l/m 11,8 km/h N -1,8 C -1,3 C 29,0 km/h
09.12.2017 01:00 2,9 C 70 % 1010,1 hPa 0,0 l/m 10,4 km/h N -2,2 C -0,6 C 28,1 km/h
09.12.2017 02:00 2,7 C 70 % 1010,0 hPa 0,0 l/m 8,0 km/h N -2,2 C 1,2 C 22,9 km/h
09.12.2017 03:00 2,6 C 69 % 1009,6 hPa 0,0 l/m 8,1 km/h N -2,5 C 1,0 C 22,1 km/h
09.12.2017 04:00 2,7 C 68 % 1009,2 hPa 0,0 l/m 7,8 km/h N -2,6 C 1,4 C 23,7 km/h
09.12.2017 05:00 2,5 C 69 % 1009,1 hPa 0,0 l/m 6,5 km/h N -2,6 C 2,2 C 18,5 km/h
09.12.2017 06:00 2,3 C 72 % 1009,2 hPa 0,0 l/m 5,5 km/h N -2,4 C 2,2 C 17,7 km/h
09.12.2017 07:00 2,2 C 72 % 1009,5 hPa 0,0 l/m 5,8 km/h N -2,3 C 2,2 C 18,9 km/h
09.12.2017 08:00 2,0 C 75 % 1010,3 hPa 0,0 l/m 6,9 km/h N -1,9 C 1,4 C 19,7 km/h
09.12.2017 09:00 2,0 C 77 % 1010,5 hPa 0,0 l/m 7,4 km/h N -1,6 C 1,1 C 18,9 km/h
09.12.2017 10:00 2,3 C 70 % 1010,7 hPa 0,0 l/m 13,1 km/h N -2,7 C -2,9 C 32,6 km/h
09.12.2017 11:00 2,2 C 63 % 1010,3 hPa 0,3 l/m 16,4 km/h N -4,2 C -5,1 C 39,0 km/h
09.12.2017 12:00 1,9 C 66 % 1010,2 hPa 0,0 l/m 17,8 km/h N -3,7 C -6,1 C 43,8 km/h
09.12.2017 13:00 1,8 C 68 % 1010,1 hPa 0,0 l/m 16,9 km/h N -3,5 C -5,9 C 41,0 km/h
09.12.2017 14:00 1,7 C 69 % 1010,1 hPa 0,0 l/m 15,8 km/h N -3,4 C -5,4 C 37,0 km/h
09.12.2017 15:00 1,5 C 68 % 1009,9 hPa 0,0 l/m 17,4 km/h N -3,8 C -6,5 C 46,3 km/h
09.12.2017 16:00 1,1 C 66 % 1010,3 hPa 0,0 l/m 21,5 km/h N -4,6 C -8,9 C 53,5 km/h
09.12.2017 17:00 0,7 C 63 % 1010,7 hPa 0,0 l/m 18,2 km/h N -5,5 C -7,9 C 47,5 km/h
09.12.2017 18:00 0,8 C 58 % 1010,8 hPa 0,0 l/m 19,8 km/h N -6,7 C -8,5 C 47,1 km/h
09.12.2017 19:00 0,9 C 56 % 1011,4 hPa 0,0 l/m 21,2 km/h N -6,9 C -9,0 C 50,7 km/h
09.12.2017 20:00 1,2 C 58 % 1012,3 hPa 0,0 l/m 20,3 km/h N -6,1 C -8,2 C 47,5 km/h
09.12.2017 21:00 1,3 C 58 % 1012,7 hPa 0,0 l/m 18,0 km/h N -6,1 C -7,0 C 46,7 km/h
09.12.2017 22:00 1,3 C 59 % 1012,7 hPa 0,0 l/m 16,7 km/h N -5,8 C -6,4 C 43,1 km/h
09.12.2017 23:00 1,0 C 60 % 1013,1 hPa 0,0 l/m 16,2 km/h N -6,0 C -6,4 C 40,2 km/h
10.12.2017 00:00 0,8 C 61 % 1013,7 hPa 0,0 l/m 9,4 km/h N -5,8 C -1,9 C 26,2 km/h
10.12.2017 01:00 0,4 C 63 % 1013,8 hPa 0,0 l/m 7,4 km/h N -5,8 C -0,6 C 21,3 km/h
10.12.2017 02:00 0,1 C 64 % 1013,7 hPa 0,0 l/m 6,8 km/h N -5,9 C -0,4 C 18,5 km/h
10.12.2017 03:00 0,1 C 64 % 1013,2 hPa 0,0 l/m 6,2 km/h N -6,0 C -0,1 C 16,5 km/h
10.12.2017 04:00 -0,1 C 63 % 1012,6 hPa 0,0 l/m 4,3 km/h N -6,2 C -0,5 C 12,5 km/h
10.12.2017 05:00 -1,0 C 65 % 1012,4 hPa 0,0 l/m 0,0 km/h N -6,8 C -1,0 C 0,0 km/h
10.12.2017 06:00 -1,8 C 67 % 1012,2 hPa 0,0 l/m 0,1 km/h N -7,2 C -1,8 C 1,6 km/h
10.12.2017 07:00 -3,3 C 69 % 1011,9 hPa 0,0 l/m 0,0 km/h N -8,1 C -3,3 C 0,0 km/h
10.12.2017 08:00 -4,5 C 74 % 1011,2 hPa 0,0 l/m 0,0 km/h N -8,5 C -4,5 C 0,0 km/h
10.12.2017 09:00 -4,0 C 78 % 1010,0 hPa 0,0 l/m 0,0 km/h N -7,2 C -4,0 C 0,8 km/h
10.12.2017 10:00 -1,7 C 71 % 1007,6 hPa 0,0 l/m 0,2 km/h N -6,3 C -1,7 C 3,2 km/h
10.12.2017 11:00 0,1 C 63 % 1004,9 hPa 0,0 l/m 0,4 km/h N -6,3 C 0,1 C 5,2 km/h
10.12.2017 12:00 2,5 C 51 % 1002,1 hPa 0,0 l/m 0,8 km/h N -6,6 C 2,5 C 5,6 km/h
10.12.2017 13:00 4,0 C 47 % 999,4 hPa 0,0 l/m 1,9 km/h N -6,3 C 4,0 C 10,9 km/h
10.12.2017 14:00 4,1 C 51 % 997,3 hPa 0,0 l/m 1,8 km/h N -5,2 C 4,1 C 6,9 km/h
10.12.2017 15:00 2,6 C 56 % 995,4 hPa 0,0 l/m 1,6 km/h N -5,3 C 2,6 C 10,5 km/h
10.12.2017 16:00 2,1 C 61 % 994,1 hPa 0,0 l/m 0,8 km/h N -4,7 C 2,1 C 8,9 km/h
10.12.2017 17:00 2,8 C 57 % 993,8 hPa 0,0 l/m 1,6 km/h N -5,0 C 2,8 C 8,1 km/h
10.12.2017 18:00 3,1 C 57 % 994,5 hPa 0,0 l/m 0,0 km/h N -4,6 C 3,1 C 1,6 km/h
10.12.2017 19:00 2,6 C 61 % 994,7 hPa 0,0 l/m 0,0 km/h N -4,3 C 2,6 C 0,8 km/h
10.12.2017 20:00 0,8 C 68 % 994,7 hPa 0,0 l/m 0,0 km/h N -4,6 C 0,8 C 2,4 km/h
10.12.2017 21:00 -0,3 C 74 % 995,3 hPa 0,0 l/m 0,0 km/h N -4,3 C -0,3 C 4,8 km/h
10.12.2017 22:00 1,9 C 69 % 995,8 hPa 0,0 l/m 1,6 km/h N -3,3 C 1,9 C 12,1 km/h
10.12.2017 23:00 4,3 C 61 % 996,1 hPa 0,0 l/m 2,4 km/h N -2,7 C 4,3 C 12,9 km/h
Min-Datum _ 10.12.17 10.12.17 10.12.17 - 07.12.17 - 10.12.17 09.12.17 07.12.17
_ Min-Zeit 08:30 13:15 17:00 - 02:15 - 08:30 19:00 02:15
Minimum _ -4,7 C 46 % 993,6 hPa - 0,0 km/h - -8,6 C -10,1 C 0,0 km/h
Max-Datum _ 07.12.17 08.12.17 06.12.17 05.12.17 09.12.17 - 07.12.17 07.12.17 09.12.17
_ Max-Zeit 15:00 17:15 00:00 09:00 19:00 - 14:15 14:45 16:30
Maximum _ 6,8 C 85 % 1030,9 hPa 1,0 l/m 23,8 km/h
N
- 2,1 C 6,7 C 61,2 km/h
N
Durchschnitt _ 2,2 C 73 % 1019,0 hPa #5,5 l/m 6,8 km/h N -2,2 C 0,1 C 20,2 km/h